No data was retrieved for https://query.yahooapis.com/v1/public/yql?q=select+%2A+from+weather.forecast+where+woeid%3D963065&format=xml&u=c

There is a communication problem. Go directly to the Meteoalarm site : www.meteoalarm.eu and check the Weather-warnings there .

Kopaida air sports center. The private airport (CTAF) Kopaida (ZZZZ) located near Athens southwest of Castle village in Voiotia,
just one hour from leaving the National Road Athens - Lamia of Kifissia. The exact location of the airport is N 38 ° 27.41 'and E 023 ° 08.18'.



Kopaida NW more information Kopaida NW


Agios Dimitrios more information Agios Dimitrios


Kopaida live view NE

Athens SkydiveBecome a Skydiver

Spot fly AviationSpot Flight Academy



Weather Underground History page Text

Daily Summary for February 23, 2019 Units:  Metric    English   Both
« Previous Day
Next Day »
Daily Weekly Monthly Yearly Custom
  Current: High: Low: Average:
Temperature: -13.8 °C -17.8 °C -13.8 °C -13.6 °C
Dew Point: -14.3 °C -17.8 °C -14.7 °C -14.3 °C
Humidity: 94 % Humidity % 80 % 90 %
Wind Speed: 0 km/h 0 km/h 0 km/h 9.2 km/h
Wind Gust: 0 km/h 0 km/h - -
Wind:Calm - - WSW
Pressure: 34303.6 hPa 0 hPa 34296.8 hPa -
Precipitation: 109.22 mm      
Historical Graphs
 
 
Tabular Data for February 23, 2019
Time Temperature Dew Point Pressure Wind Wind Speed Wind Gust Humidity Rainfall Rate (Hourly)
-17.8 °C -17.8 °C 0 hPa Calm     Humidity % 0 mm
00:00 -12.9 °C -14.7 °C 34347.6 hPa Calm   5.1 km/h 80 % 0 mm
00:05 -12.9 °C -14.6 °C 34347.6 hPa Calm     81 % 0 mm
00:10 -13 °C -14.7 °C 34347.6 hPa Calm     81 % 0 mm
00:15 -13 °C -14.6 °C 34351 hPa West 5 km/h 6 km/h 83 % 0 mm
00:20 -13.1 °C -14.6 °C 34347.6 hPa West 2.6 km/h 5.1 km/h 83 % 0 mm
00:25 -13.1 °C -14.6 °C 34351 hPa West 12.2 km/h 12.9 km/h 83 % 7.62 mm
00:30 -13.1 °C -14.7 °C 34354.4 hPa WNW 11.6 km/h 15 km/h 82 % 7.62 mm
00:35 -13 °C -14.6 °C 34351 hPa NW 10.9 km/h 11.9 km/h 82 % 0 mm
00:40 -13 °C -14.6 °C 34347.6 hPa NW 15.6 km/h 17.9 km/h 82 % 0 mm
00:45 -12.9 °C -14.6 °C 34351 hPa NNW 15.8 km/h 17.9 km/h 82 % 0 mm
00:50 -12.9 °C -14.5 °C 34344.2 hPa NW 15.6 km/h 18.2 km/h 83 % 7.62 mm
00:55 -13 °C -14.6 °C 34344.2 hPa NW 18.8 km/h 20.9 km/h 83 % 7.62 mm
01:00 -13 °C -14.6 °C 34340.8 hPa NW 18.2 km/h 23.3 km/h 82 % 0 mm
01:05 -13.1 °C -14.4 °C 34340.8 hPa NW 15.6 km/h 17.9 km/h 85 % 12.7 mm
01:10 -13.2 °C -14.4 °C 34340.8 hPa NW 11.1 km/h 11.9 km/h 86 % 12.7 mm
01:15 -13.2 °C -14.4 °C 34337.4 hPa WNW 9 km/h 9 km/h 87 % 12.7 mm
01:20 -13.3 °C -14.4 °C 34340.8 hPa WNW 6.8 km/h 9 km/h 87 % 12.7 mm
01:25 -13.3 °C -14.4 °C 34337.4 hPa WNW 8.2 km/h 10.3 km/h 88 % 7.62 mm
01:30 -13.4 °C -14.4 °C 34337.4 hPa WNW 13.5 km/h 15.6 km/h 88 % 7.62 mm
01:35 -13.4 °C -14.3 °C 34337.4 hPa WNW 14.8 km/h 15.6 km/h 89 % 7.62 mm
01:40 -13.4 °C -14.3 °C 34334 hPa WNW 17.9 km/h 20.9 km/h 89 % 7.62 mm
01:45 -13.4 °C -14.3 °C 34337.4 hPa WNW 18.8 km/h 20.9 km/h 89 % 7.62 mm
01:50 -13.4 °C -14.3 °C 34334 hPa WNW 18.2 km/h 20.8 km/h 90 % 0 mm
01:55 -13.4 °C -14.2 °C 34330.7 hPa WNW 17.1 km/h 20.9 km/h 91 % 0 mm
02:00 -13.4 °C -14.2 °C 34330.7 hPa WNW 15.6 km/h 20.8 km/h 91 % 0 mm
02:05 -13.5 °C -14.2 °C 34334 hPa WNW 15.6 km/h 15.6 km/h 92 % 7.62 mm
02:10 -13.5 °C -14.1 °C 34330.7 hPa West 15 km/h 17.9 km/h 93 % 7.62 mm
02:15 -13.6 °C -14.1 °C 34327.3 hPa WNW 17.5 km/h 20.9 km/h 93 % 7.62 mm
02:20 -13.6 °C -14.2 °C 34327.3 hPa WNW 18.2 km/h 23.3 km/h 93 % 0 mm
02:25 -13.6 °C -14.2 °C 34327.3 hPa WNW 17.9 km/h 20.9 km/h 93 % 7.62 mm
02:30 -13.7 °C -14.2 °C 34323.9 hPa WNW 20.8 km/h 23.3 km/h 93 % 0 mm
02:35 -13.7 °C -14.3 °C 34327.3 hPa WNW 18.2 km/h 20.9 km/h 93 % 7.62 mm
02:40 -13.7 °C -14.3 °C 34323.9 hPa WNW 20.9 km/h 23.8 km/h 93 % 7.62 mm
02:45 -13.7 °C -14.3 °C 34327.3 hPa WNW 18.2 km/h 23.3 km/h 93 % 0 mm
02:50 -13.7 °C -14.2 °C 34320.5 hPa WNW 15.6 km/h 18.2 km/h 93 % 0 mm
02:55 -13.7 °C -14.3 °C 34313.7 hPa WNW 13.2 km/h 15 km/h 92 % 7.62 mm
03:00 -13.7 °C -14.3 °C 34317.1 hPa WNW 15.6 km/h 18.2 km/h 92 % 0 mm
03:05 -13.7 °C -14.3 °C 34317.1 hPa WNW 17.1 km/h 17.9 km/h 92 % 7.62 mm
03:10 -13.7 °C -14.3 °C 34310.3 hPa WNW 15.3 km/h 17.9 km/h 92 % 7.62 mm
03:15 -13.7 °C -14.3 °C 34310.3 hPa WNW 18.2 km/h 20.9 km/h 92 % 7.62 mm
03:20 -13.7 °C -14.3 °C 34310.3 hPa WNW 15.3 km/h 17.9 km/h 92 % 7.62 mm
03:25 -13.7 °C -14.3 °C 34310.3 hPa WNW 16.1 km/h 17.9 km/h 93 % 7.62 mm
03:30 -13.7 °C -14.3 °C 34307 hPa WNW 14.8 km/h 17.9 km/h 93 % 12.7 mm
03:35 -13.7 °C -14.3 °C 34307 hPa WNW 12.9 km/h 15 km/h 93 % 12.7 mm
03:40 -13.7 °C -14.3 °C 34303.6 hPa WNW 13.2 km/h 15 km/h 93 % 20.32 mm
03:45 -13.7 °C -14.3 °C 34303.6 hPa WNW 11.9 km/h 12.9 km/h 93 % 20.32 mm
03:50 -13.7 °C -14.3 °C 34303.6 hPa WNW 11.4 km/h 11.9 km/h 93 % 20.32 mm
03:55 -13.7 °C -14.3 °C 34303.6 hPa WNW 9.7 km/h 9 km/h 93 % 20.32 mm
04:00 -13.7 °C -14.3 °C 34300.2 hPa WNW 7.7 km/h 10.3 km/h 93 % 7.62 mm
04:05 -13.7 °C -14.2 °C 34303.6 hPa WNW 7.7 km/h 9 km/h 94 % 20.32 mm
04:10 -13.7 °C -14.1 °C 34296.8 hPa NW 7.6 km/h 9 km/h 94 % 20.32 mm
04:15 -13.6 °C -14.1 °C 34296.8 hPa NW 7.7 km/h 10.3 km/h 94 % 0 mm
04:20 -13.6 °C -14.1 °C 34300.2 hPa North 5.6 km/h 9 km/h 94 % 25.4 mm
04:25 -13.6 °C -14.1 °C 34300.2 hPa North 4.7 km/h 6 km/h 94 % 25.4 mm
04:30 -13.6 °C -14.1 °C 34300.2 hPa North 1.6 km/h 3.1 km/h 94 % 20.32 mm
04:35 -13.6 °C -14.1 °C 34296.8 hPa Calm   3.1 km/h 94 % 25.4 mm
04:40 -13.7 °C -14.1 °C 34300.2 hPa Calm     94 % 20.32 mm
04:45 -13.7 °C -14.2 °C 34296.8 hPa Calm     94 % 20.32 mm
04:50 -13.7 °C -14.2 °C 34300.2 hPa Calm     94 % 20.32 mm
04:55 -13.7 °C -14.2 °C 34300.2 hPa Calm     94 % 20.32 mm
05:00 -13.7 °C -14.2 °C 34300.2 hPa Calm     94 % 0 mm
05:05 -13.7 °C -14.2 °C 34296.8 hPa Calm     94 % 20.32 mm
05:10 -13.8 °C -14.3 °C 34296.8 hPa Calm     94 % 20.32 mm
05:15 -13.8 °C -14.3 °C 34296.8 hPa Calm     94 % 20.32 mm
05:20 -13.8 °C -14.3 °C 34296.8 hPa North 2.1 km/h 3.1 km/h 94 % 12.7 mm
05:25 -13.8 °C -14.3 °C 34296.8 hPa North 2.3 km/h 3.1 km/h 94 % 20.32 mm
05:30 -13.8 °C -14.3 °C 34296.8 hPa North 2.3 km/h 3.1 km/h 94 % 20.32 mm
05:35 -13.8 °C -14.3 °C 34303.6 hPa North 5.5 km/h 9 km/h 94 % 12.7 mm
05:40 -13.8 °C -14.3 °C 34300.2 hPa North 5.1 km/h 6 km/h 94 % 20.32 mm
05:45 -13.8 °C -14.3 °C 34303.6 hPa North 5.1 km/h 6 km/h 94 % 25.4 mm
05:50 -13.7 °C -14.2 °C 34300.2 hPa North 2.1 km/h 3.1 km/h 94 % 25.4 mm
05:55 -13.8 °C -14.3 °C 34296.8 hPa Calm     94 % 25.4 mm
06:00 -13.8 °C -14.3 °C 34300.2 hPa Calm     94 % 7.62 mm
06:05 -13.8 °C -14.3 °C 34300.2 hPa Calm     94 % 25.4 mm
06:10 -13.8 °C -14.3 °C 34300.2 hPa Calm     94 % 33.02 mm
06:15 -13.8 °C -14.3 °C 34300.2 hPa Calm     94 % 33.02 mm
06:20 -13.8 °C -14.3 °C 34303.6 hPa NE 5.5 km/h 9 km/h 94 % 38.1 mm
06:25 -13.8 °C -14.3 °C 34303.6 hPa NE 6.8 km/h 9 km/h 94 % 38.1 mm
06:30 -13.8 °C -14.3 °C 34303.6 hPa Calm     94 % 45.72 mm
Kopaida airport
Compliments of Weather Underground - 4 mb

Script developed by  Jim McMurry - jmcmurry@mwt.net Adapted for the template by  Wim van der Kuil - Leuven-Template.eu

You find our weather info also at:

UK Metoffice

European Weather Network

WeatherCloud

Weather Underground

AWEKAS

Citizen Weather Observer Program (CWOP)

HAMweather, WeatherForYou, PWS Weather

Equipment we use:

Weather-station
Wireless Vantage Pro2

Weather-program
Weather Display

Wireless Vantage Pro2

Weather Display


Never base important decisions on this or any weather information obtained from the Internet

Kopaida airport (ZZZZ) - CTAF frequency : 119.700 - Tanagra(LGTG) MATZ 120.250

Airport Phone +306977612200, +302268041170, Contact Mr. George Papadopoulos.